| time (UTC) | temp F | wind direction | speed MPH | gust MPH | rain 1hr in | rain 24hr in | rain mn in | humidity % | barometer mb |
| 20260508002315 | 56 | 255 | 1.0 | 2.0 | 0.00 | 0.00 | 0.00 | 45 | 1012.7 |
| 20260508001811 | 56 | 252 | 6.0 | 9.0 | 0.00 | 0.00 | 0.00 | 40 | 1013.0 |
| 20260508001307 | 56 | 243 | 2.0 | 3.0 | 0.00 | 0.00 | 0.00 | 46 | 1012.7 |
| 20260508000803 | 57 | 8 | 0.0 | 6.0 | 0.00 | 0.00 | 0.00 | 39 | 1012.6 |
| 20260508000300 | 57 | 275 | 5.0 | 10.0 | 0.00 | 0.00 | 0.00 | 40 | 1012.5 |
| 20260507235757 | 57 | 282 | 1.0 | 3.0 | 0.00 | 0.00 | 0.00 | 42 | 1012.4 |
| 20260507235255 | 57 | 101 | 2.0 | 4.0 | 0.00 | 0.00 | 0.00 | 42 | 1012.5 |
| 20260507234751 | 57 | 270 | 1.0 | 3.0 | 0.00 | 0.00 | 0.00 | 42 | 1012.3 |
| 20260507234248 | 58 | 114 | 1.0 | 4.0 | 0.00 | 0.00 | 0.00 | 43 | 1012.4 |
| 20260507233744 | 58 | 257 | 7.0 | 11.0 | 0.00 | 0.00 | 0.00 | 40 | 1012.3 |
| 20260507233242 | 59 | 93 | 3.0 | 5.0 | 0.00 | 0.00 | 0.00 | 41 | 1012.1 |
| 20260507232739 | 59 | 277 | 3.0 | 5.0 | 0.00 | 0.00 | 0.00 | 43 | 1012.1 |
| 20260507232237 | 59 | 301 | 2.0 | 6.0 | 0.00 | 0.00 | 0.00 | 40 | 1011.8 |
| 20260507231733 | 61 | 270 | 0.0 | 5.0 | 0.00 | 0.00 | 0.00 | 39 | 1011.8 |
| 20260507231230 | 61 | 270 | 4.0 | 6.0 | 0.00 | 0.00 | 0.00 | 38 | 1012.1 |
| 20260507230726 | 61 | 289 | 1.0 | 4.0 | 0.00 | 0.00 | 0.00 | 40 | 1011.9 |
| 20260507230224 | 60 | 263 | 5.0 | 5.0 | 0.00 | 0.00 | 0.00 | 42 | 1012.1 |
| 20260507225723 | 60 | 267 | 4.0 | 7.0 | 0.00 | 0.00 | 0.00 | 41 | 1011.9 |
| 20260507225220 | 61 | 246 | 0.0 | 3.0 | 0.00 | 0.00 | 0.00 | 42 | 1011.7 |
| 20260507224716 | 61 | 236 | 5.0 | 5.0 | 0.00 | 0.00 | 0.00 | 43 | 1011.8 |
| 20260507224213 | 60 | 287 | 2.0 | 3.0 | 0.00 | 0.00 | 0.00 | 41 | 1011.8 |
| 20260507223709 | 60 | 84 | 0.0 | 2.0 | 0.00 | 0.00 | 0.00 | 41 | 1011.7 |
| 20260507223206 | 60 | 264 | 3.0 | 4.0 | 0.00 | 0.00 | 0.00 | 43 | 1011.8 |
| 20260507222702 | 60 | 284 | 10.0 | 10.0 | 0.00 | 0.00 | 0.00 | 39 | 1011.8 |
| 20260507222159 | 64 | 276 | 5.0 | 6.0 | 0.00 | 0.00 | 0.00 | 36 | 1011.6 |
| 20260507221655 | 63 | 348 | 2.0 | 6.0 | 0.00 | 0.00 | 0.00 | 39 | 1011.5 |
| 20260507221152 | 64 | 266 | 3.0 | 5.0 | 0.00 | 0.00 | 0.00 | 40 | 1011.5 |
| 20260507220649 | 63 | 270 | 0.0 | 8.0 | 0.00 | 0.00 | 0.00 | 40 | 1011.5 |
| 20260507220147 | 64 | 288 | 2.0 | 4.0 | 0.00 | 0.00 | 0.00 | 38 | 1011.4 |
| 20260507215642 | 62 | 266 | 2.0 | 7.0 | 0.00 | 0.00 | 0.00 | 38 | 1011.3 |
| 20260507215140 | 63 | 243 | 2.0 | 5.0 | 0.00 | 0.00 | 0.00 | 39 | 1011.3 |
| 20260507214637 | 64 | 281 | 5.0 | 5.0 | 0.00 | 0.00 | 0.00 | 36 | 1011.4 |
| 20260507214134 | 62 | 254 | 3.0 | 8.0 | 0.00 | 0.00 | 0.00 | 39 | 1011.1 |
| 20260507213630 | 64 | 245 | 5.0 | 9.0 | 0.00 | 0.00 | 0.00 | 38 | 1011.2 |
| 20260507213127 | 65 | 225 | 3.0 | 5.0 | 0.00 | 0.00 | 0.00 | 38 | 1011.1 |
| 20260507212623 | 66 | 272 | 5.0 | 5.0 | 0.00 | 0.00 | 0.00 | 45 | 1011.2 |
| 20260507212120 | 64 | 281 | 5.0 | 10.0 | 0.00 | 0.00 | 0.00 | 41 | 1011.1 |
| 20260507211617 | 64 | 127 | 0.0 | 7.0 | 0.00 | 0.00 | 0.00 | 38 | 1011.2 |
| 20260507211113 | 65 | 279 | 0.0 | 7.0 | 0.00 | 0.00 | 0.00 | 43 | 1011.1 |
| 20260507210611 | 63 | 264 | 5.0 | 8.0 | 0.00 | 0.00 | 0.00 | 40 | 1011.0 |
| 20260507210107 | 65 | 240 | 1.0 | 4.0 | 0.00 | 0.00 | 0.00 | 40 | 1011.0 |
| 20260507205604 | 64 | 241 | 2.0 | 4.0 | 0.00 | 0.00 | 0.00 | 40 | 1011.0 |
| 20260507205100 | 63 | 228 | 2.0 | 6.0 | 0.00 | 0.00 | 0.00 | 46 | 1011.3 |
| 20260507204556 | 63 | 254 | 3.0 | 6.0 | 0.00 | 0.00 | 0.00 | 40 | 1011.2 |
| 20260507204054 | 63 | 144 | 4.0 | 9.0 | 0.00 | 0.00 | 0.00 | 45 | 1011.0 |
| 20260507203552 | 64 | 299 | 3.0 | 6.0 | 0.00 | 0.00 | 0.00 | 41 | 1011.0 |
| 20260507203049 | 66 | 270 | 3.0 | 6.0 | 0.00 | 0.00 | 0.00 | 42 | 1011.0 |
| 20260507202544 | 64 | 220 | 2.0 | 7.0 | 0.00 | 0.00 | 0.00 | 45 | 1011.0 |
| 20260507202041 | 63 | 270 | 2.0 | 7.0 | 0.00 | 0.00 | 0.00 | 41 | 1011.1 |
| 20260507201536 | 63 | 254 | 4.0 | 6.0 | 0.00 | 0.00 | 0.00 | 46 | 1011.4 |
| 20260507201033 | 61 | 273 | 3.0 | 6.0 | 0.00 | 0.00 | 0.00 | 43 | 1011.1 |
| 20260507200528 | 61 | 257 | 4.0 | 6.0 | 0.00 | 0.00 | 0.00 | 47 | 1011.3 |
| 20260507200025 | 61 | 239 | 2.0 | 4.0 | 0.00 | 0.00 | 0.00 | 47 | 1011.3 |
| 20260507195522 | 64 | 243 | 3.0 | 8.0 | 0.00 | 0.00 | 0.00 | 42 | 1011.5 |
| 20260507195020 | 64 | 188 | 0.0 | 1.0 | 0.00 | 0.00 | 0.00 | 45 | 1011.7 |
| 20260507194516 | 62 | 84 | 2.0 | 5.0 | 0.00 | 0.00 | 0.00 | 50 | 1011.7 |
| 20260507194012 | 63 | 224 | 8.0 | 10.0 | 0.00 | 0.00 | 0.00 | 44 | 1011.8 |
| 20260507193509 | 61 | 228 | 6.0 | 7.0 | 0.00 | 0.00 | 0.00 | 46 | 1011.9 |
| 20260507193006 | 64 | 299 | 7.0 | 9.0 | 0.00 | 0.00 | 0.00 | 42 | 1011.9 |
| 20260507192502 | 65 | 250 | 3.0 | 4.0 | 0.00 | 0.00 | 0.00 | 50 | 1011.8 |
| 20260507191959 | 65 | 279 | 3.0 | 6.0 | 0.00 | 0.00 | 0.00 | 45 | 1011.8 |
| 20260507191454 | 64 | 250 | 4.0 | 9.0 | 0.00 | 0.00 | 0.00 | 47 | 1011.7 |
| 20260507190952 | 64 | 248 | 3.0 | 8.0 | 0.00 | 0.00 | 0.00 | 42 | 1011.7 |
| 20260507190449 | 63 | 278 | 2.0 | 7.0 | 0.00 | 0.00 | 0.00 | 43 | 1011.8 |
| 20260507185948 | 61 | 278 | 0.0 | 9.0 | 0.00 | 0.00 | 0.00 | 48 | 1011.7 |
| 20260507185445 | 61 | 35 | 5.0 | 6.0 | 0.00 | 0.00 | 0.00 | 51 | 1011.8 |
| 20260507184941 | 60 | 292 | 4.0 | 9.0 | 0.00 | 0.00 | 0.00 | 45 | 1011.8 |
| 20260507184440 | 62 | 273 | 6.0 | 7.0 | 0.00 | 0.00 | 0.00 | 46 | 1011.7 |
| 20260507183937 | 63 | 49 | 10.0 | 13.0 | 0.00 | 0.00 | 0.00 | 43 | 1012.1 |
| 20260507183434 | 62 | 243 | 2.0 | 7.0 | 0.00 | 0.00 | 0.00 | 50 | 1011.8 |
| 20260507182931 | 63 | 287 | 2.0 | 8.0 | 0.00 | 0.00 | 0.00 | 47 | 1012.1 |
| 20260507182427 | 64 | 138 | 0.0 | 10.0 | 0.00 | 0.00 | 0.00 | 55 | 1012.2 |
| 20260507181923 | 62 | 283 | 4.0 | 7.0 | 0.00 | 0.00 | 0.00 | 46 | 1012.2 |
| 20260507181419 | 60 | 255 | 3.0 | 7.0 | 0.00 | 0.00 | 0.00 | 48 | 1012.2 |
| 20260507180916 | 62 | 273 | 4.0 | 10.0 | 0.00 | 0.00 | 0.00 | 46 | 1012.1 |
| 20260507180413 | 62 | 297 | 1.0 | 10.0 | 0.00 | 0.00 | 0.00 | 43 | 1012.3 |
| 20260507175909 | 64 | 63 | 1.0 | 8.0 | 0.00 | 0.00 | 0.00 | 47 | 1011.9 |
| 20260507175406 | 62 | 147 | 5.0 | 5.0 | 0.00 | 0.00 | 0.00 | 49 | 1012.1 |
| 20260507174903 | 61 | 253 | 3.0 | 6.0 | 0.00 | 0.00 | 0.00 | 46 | 1012.1 |
| 20260507174400 | 63 | 135 | 3.0 | 3.0 | 0.00 | 0.00 | 0.00 | 49 | 1012.3 |
| 20260507173858 | 61 | 267 | 4.0 | 8.0 | 0.00 | 0.00 | 0.00 | 48 | 1012.4 |
| 20260507173355 | 62 | 240 | 0.0 | 5.0 | 0.00 | 0.00 | 0.00 | 44 | 1012.6 |
| 20260507172851 | 62 | 282 | 5.0 | 6.0 | 0.00 | 0.00 | 0.00 | 48 | 1012.6 |
| 20260507172348 | 62 | 232 | 2.0 | 7.0 | 0.00 | 0.00 | 0.00 | 45 | 1012.6 |
| 20260507171844 | 60 | 328 | 0.0 | 6.0 | 0.00 | 0.00 | 0.00 | 45 | 1012.6 |
| 20260507171341 | 62 | 258 | 0.0 | 11.0 | 0.00 | 0.00 | 0.00 | 49 | 1012.8 |
| 20260507170838 | 63 | 51 | 5.0 | 7.0 | 0.00 | 0.00 | 0.00 | 47 | 1012.9 |
| 20260507170334 | 61 | 35 | 0.0 | 4.0 | 0.00 | 0.00 | 0.00 | 51 | 1013.0 |
| 20260507165830 | 60 | 254 | 5.0 | 7.0 | 0.00 | 0.00 | 0.00 | 49 | 1013.1 |
| 20260507165326 | 62 | 84 | 0.0 | 4.0 | 0.00 | 0.00 | 0.00 | 51 | 1012.8 |
| 20260507164822 | 62 | 227 | 3.0 | 3.0 | 0.00 | 0.00 | 0.00 | 43 | 1013.2 |
| 20260507164320 | 60 | 41 | 5.0 | 7.0 | 0.00 | 0.00 | 0.00 | 49 | 1013.2 |
| 20260507163817 | 61 | 129 | 6.0 | 7.0 | 0.00 | 0.00 | 0.00 | 45 | 1013.2 |
| 20260507163314 | 62 | 219 | 4.0 | 4.0 | 0.00 | 0.00 | 0.00 | 49 | 1013.2 |
| 20260507162810 | 61 | 308 | 5.0 | 12.0 | 0.00 | 0.00 | 0.00 | 48 | 1013.3 |
| 20260507162307 | 60 | 289 | 2.0 | 5.0 | 0.00 | 0.00 | 0.00 | 50 | 1013.3 |
| 20260507161804 | 58 | 273 | 3.0 | 6.0 | 0.00 | 0.00 | 0.00 | 51 | 1013.2 |
| 20260507161300 | 59 | 0 | 2.0 | 9.0 | 0.00 | 0.00 | 0.00 | 46 | 1013.2 |
| 20260507160756 | 60 | 127 | 0.0 | 7.0 | 0.00 | 0.00 | 0.00 | 45 | 1013.6 |
| 20260507160252 | 59 | 277 | 3.0 | 5.0 | 0.00 | 0.00 | 0.00 | 49 | 1013.6 |
| 20260507155748 | 60 | 223 | 4.0 | 8.0 | 0.00 | 0.00 | 0.00 | 47 | 1013.6 |
| 20260507155244 | 60 | 298 | 6.0 | 13.0 | 0.00 | 0.00 | 0.00 | 46 | 1013.7 |
| 20260507154741 | 60 | 90 | 2.0 | 5.0 | 0.00 | 0.00 | 0.00 | 56 | 1013.6 |
| 20260507154239 | 61 | 270 | 2.0 | 6.0 | 0.00 | 0.00 | 0.00 | 51 | 1013.6 |
| 20260507153735 | 60 | 254 | 2.0 | 6.0 | 0.00 | 0.00 | 0.00 | 49 | 1013.7 |
| 20260507153232 | 60 | 297 | 3.0 | 7.0 | 0.00 | 0.00 | 0.00 | 54 | 1013.8 |
| 20260507152728 | 60 | 132 | 0.0 | 5.0 | 0.00 | 0.00 | 0.00 | 54 | 1013.5 |
| 20260507152225 | 60 | 326 | 5.0 | 6.0 | 0.00 | 0.00 | 0.00 | 50 | 1013.9 |
| 20260507151721 | 57 | 80 | 3.0 | 5.0 | 0.00 | 0.00 | 0.00 | 56 | 1013.7 |
| 20260507151217 | 59 | 60 | 3.0 | 5.0 | 0.00 | 0.00 | 0.00 | 47 | 1013.9 |
| 20260507150714 | 59 | 225 | 3.0 | 4.0 | 0.00 | 0.00 | 0.00 | 54 | 1013.8 |
| 20260507150211 | 59 | 220 | 3.0 | 6.0 | 0.00 | 0.00 | 0.00 | 57 | 1014.0 |
| 20260507145707 | 58 | 251 | 1.0 | 5.0 | 0.00 | 0.00 | 0.00 | 53 | 1014.2 |
| 20260507145204 | 57 | 253 | 0.0 | 4.0 | 0.00 | 0.00 | 0.00 | 60 | 1013.9 |
| 20260507144700 | 58 | 48 | 6.0 | 7.0 | 0.00 | 0.00 | 0.00 | 50 | 1014.1 |
| 20260507144159 | 57 | 248 | 2.0 | 5.0 | 0.00 | 0.00 | 0.00 | 52 | 1014.2 |
| 20260507143655 | 58 | 187 | 1.0 | 7.0 | 0.00 | 0.00 | 0.00 | 52 | 1014.3 |
| 20260507143152 | 56 | 139 | 2.0 | 5.0 | 0.00 | 0.00 | 0.00 | 55 | 1014.2 |
| 20260507142647 | 59 | 126 | 1.0 | 6.0 | 0.00 | 0.00 | 0.00 | 51 | 1014.2 |
| 20260507142145 | 58 | 98 | 0.0 | 5.0 | 0.00 | 0.00 | 0.00 | 53 | 1014.4 |
| 20260507141641 | 57 | 172 | 0.0 | 5.0 | 0.00 | 0.00 | 0.00 | 52 | 1014.6 |
| 20260507141138 | 58 | 143 | 4.0 | 5.0 | 0.00 | 0.00 | 0.00 | 53 | 1014.7 |
| 20260507140634 | 59 | 53 | 2.0 | 4.0 | 0.00 | 0.00 | 0.00 | 55 | 1014.8 |
| 20260507140132 | 56 | 265 | 0.0 | 5.0 | 0.00 | 0.00 | 0.00 | 58 | 1014.6 |
| 20260507135629 | 57 | 229 | 0.0 | 3.0 | 0.00 | 0.00 | 0.00 | 54 | 1014.8 |
| 20260507135126 | 57 | 243 | 3.0 | 3.0 | 0.00 | 0.00 | 0.00 | 55 | 1014.9 |
| 20260507134622 | 56 | 129 | 2.0 | 4.0 | 0.00 | 0.00 | 0.00 | 58 | 1015.0 |
| 20260507134119 | 56 | 101 | 3.0 | 7.0 | 0.00 | 0.00 | 0.00 | 55 | 1015.0 |
| 20260507133614 | 56 | 90 | 3.0 | 9.0 | 0.00 | 0.00 | 0.00 | 58 | 1014.9 |
| 20260507133112 | 56 | 248 | 3.0 | 4.0 | 0.00 | 0.00 | 0.00 | 60 | 1015.2 |
| 20260507132609 | 56 | 47 | 5.0 | 6.0 | 0.00 | 0.00 | 0.00 | 59 | 1015.0 |
| 20260507132105 | 58 | 8 | 0.0 | 2.0 | 0.00 | 0.00 | 0.00 | 52 | 1015.0 |
| 20260507131602 | 56 | 122 | 3.0 | 4.0 | 0.00 | 0.00 | 0.00 | 58 | 1015.2 |
| 20260507131100 | 56 | 264 | 0.0 | 3.0 | 0.00 | 0.00 | 0.00 | 59 | 1015.2 |
| 20260507130556 | 56 | 107 | 0.0 | 3.0 | 0.00 | 0.00 | 0.00 | 58 | 1015.2 |
| 20260507130054 | 56 | 22 | 0.0 | 3.0 | 0.00 | 0.00 | 0.00 | 66 | 1015.1 |
| 20260507125553 | 55 | 144 | 2.0 | 5.0 | 0.00 | 0.00 | 0.00 | 68 | 1015.2 |
| 20260507125050 | 55 | 26 | 0.0 | 2.0 | 0.00 | 0.00 | 0.00 | 71 | 1015.2 |
| 20260507124546 | 54 | 105 | 0.0 | 3.0 | 0.00 | 0.00 | 0.00 | 71 | 1015.0 |
| 20260507124044 | 54 | 85 | 2.0 | 2.0 | 0.00 | 0.00 | 0.00 | 75 | 1015.0 |
| 20260507123542 | 55 | 120 | 0.0 | 2.0 | 0.00 | 0.00 | 0.00 | 78 | 1015.2 |
| 20260507123038 | 53 | 114 | 0.0 | 2.0 | 0.00 | 0.00 | 0.00 | 81 | 1015.1 |
| 20260507122533 | 52 | 117 | 0.0 | 1.0 | 0.00 | 0.00 | 0.00 | 83 | 1015.3 |
| 20260507122030 | 50 | 66 | 0.0 | 2.0 | 0.00 | 0.00 | 0.00 | 89 | 1015.3 |
| 20260507121525 | 50 | 54 | 1.0 | 2.0 | 0.00 | 0.00 | 0.00 | 92 | 1015.3 |
| 20260507121021 | 49 | 61 | 2.0 | 2.0 | 0.00 | 0.00 | 0.00 | 94 | 1015.3 |
| 20260507120518 | 49 | 49 | 1.0 | 2.0 | 0.00 | 0.00 | 0.00 | 97 | 1015.1 |
| 20260507120015 | 47 | 90 | 2.0 | 2.0 | 0.00 | 0.00 | 0.00 | 98 | 1015.0 |
| 20260507115511 | 46 | 40 | 1.0 | 3.0 | 0.00 | 0.00 | 0.00 | 98 | 1015.3 |
| 20260507115007 | 47 | 49 | 0.0 | 3.0 | 0.00 | 0.00 | 0.00 | 99 | 1015.0 |
| 20260507114503 | 45 | 90 | 1.0 | 1.0 | 0.00 | 0.00 | 0.00 | 99 | 1014.9 |
| 20260507114000 | 44 | 63 | 1.0 | 2.0 | 0.00 | 0.00 | 0.00 | 98 | 1015.0 |
| 20260507113458 | 45 | 90 | 0.0 | 0.0 | 0.00 | 0.00 | 0.00 | 99 | 1015.1 |
| 20260507112955 | 44 | 126 | 0.0 | 1.0 | 0.00 | 0.00 | 0.00 | 98 | 1014.9 |
| 20260507112452 | 43 | 126 | 0.0 | 0.0 | 0.00 | 0.00 | 0.00 | 98 | 1015.0 |
| 20260507111949 | 43 | 126 | 0.0 | 1.0 | 0.00 | 0.00 | 0.00 | 98 | 1014.9 |
| 20260507111446 | 43 | 126 | 0.0 | 0.0 | 0.00 | 0.00 | 0.00 | 98 | 1014.9 |
| 20260507110942 | 43 | 126 | 0.0 | 0.0 | 0.00 | 0.00 | 0.00 | 98 | 1014.8 |
| 20260507110439 | 42 | 131 | 0.0 | 1.0 | 0.00 | 0.00 | 0.00 | 98 | 1014.8 |
| 20260507105935 | 42 | 114 | 0.0 | 0.0 | 0.00 | 0.00 | 0.00 | 98 | 1014.8 |
| 20260507105432 | 41 | 74 | 0.0 | 0.0 | 0.00 | 0.00 | 0.00 | 98 | 1014.7 |
| 20260507104929 | 41 | 74 | 0.0 | 0.0 | 0.00 | 0.00 | 0.00 | 98 | 1014.8 |
| 20260507104426 | 41 | 120 | 0.0 | 2.0 | 0.00 | 0.00 | 0.00 | 98 | 1014.4 |
| 20260507103921 | 41 | 246 | 0.0 | 1.0 | 0.00 | 0.00 | 0.00 | 98 | 1014.6 |
| 20260507103418 | 41 | 270 | 0.0 | 0.0 | 0.00 | 0.00 | 0.00 | 98 | 1014.5 |
| 20260507102914 | 41 | 270 | 0.0 | 2.0 | 0.00 | 0.00 | 0.00 | 98 | 1014.7 |
| 20260507102411 | 41 | 254 | 0.0 | 0.0 | 0.00 | 0.00 | 0.00 | 98 | 1014.3 |
| 20260507101908 | 41 | 254 | 0.0 | 0.0 | 0.00 | 0.00 | 0.00 | 98 | 1014.2 |
| 20260507101403 | 41 | 254 | 0.0 | 0.0 | 0.00 | 0.00 | 0.00 | 98 | 1014.4 |
| 20260507100900 | 42 | 254 | 0.0 | 0.0 | 0.00 | 0.00 | 0.00 | 98 | 1014.5 |
| 20260507100357 | 42 | 254 | 0.0 | 0.0 | 0.00 | 0.00 | 0.00 | 98 | 1014.5 |
| 20260507095855 | 42 | 254 | 0.0 | 0.0 | 0.00 | 0.00 | 0.00 | 98 | 1014.3 |
| 20260507095352 | 42 | 82 | 0.0 | 0.0 | 0.00 | 0.00 | 0.00 | 98 | 1014.7 |
| 20260507094849 | 42 | 82 | 0.0 | 0.0 | 0.00 | 0.00 | 0.00 | 97 | 1014.2 |
| 20260507094345 | 43 | 82 | 0.0 | 0.0 | 0.00 | 0.00 | 0.00 | 97 | 1014.5 |
| 20260507093843 | 43 | 246 | 0.0 | 0.0 | 0.00 | 0.00 | 0.00 | 97 | 1014.6 |
| 20260507093341 | 43 | 286 | 0.0 | 0.0 | 0.00 | 0.00 | 0.00 | 97 | 1014.3 |
| 20260507092839 | 44 | 286 | 0.0 | 0.0 | 0.00 | 0.00 | 0.00 | 97 | 1014.1 |
| 20260507092334 | 44 | 286 | 0.0 | 0.0 | 0.00 | 0.00 | 0.00 | 97 | 1014.2 |
| 20260507091831 | 44 | 250 | 0.0 | 0.0 | 0.00 | 0.00 | 0.00 | 97 | 1014.2 |
| 20260507091328 | 44 | 250 | 0.0 | 2.0 | 0.00 | 0.00 | 0.00 | 96 | 1013.9 |
| 20260507090823 | 44 | 277 | 0.0 | 0.0 | 0.00 | 0.00 | 0.00 | 96 | 1014.1 |
| 20260507090320 | 45 | 66 | 0.0 | 0.0 | 0.00 | 0.00 | 0.00 | 95 | 1014.3 |
| 20260507085817 | 45 | 66 | 0.0 | 0.0 | 0.00 | 0.00 | 0.00 | 95 | 1014.1 |
| 20260507085314 | 46 | 262 | 0.0 | 0.0 | 0.00 | 0.00 | 0.00 | 95 | 1014.1 |
| 20260507084811 | 46 | 99 | 0.0 | 0.0 | 0.00 | 0.00 | 0.00 | 96 | 1014.3 |
| 20260507084307 | 47 | 99 | 0.0 | 0.0 | 0.00 | 0.00 | 0.00 | 96 | 1014.3 |
| 20260507083805 | 48 | 99 | 0.0 | 0.0 | 0.00 | 0.00 | 0.00 | 96 | 1014.2 |
| 20260507083301 | 48 | 99 | 0.0 | 0.0 | 0.00 | 0.00 | 0.00 | 96 | 1014.3 |
| 20260507082757 | 48 | 99 | 0.0 | 0.0 | 0.00 | 0.00 | 0.00 | 96 | 1014.4 |
| 20260507082253 | 48 | 99 | 0.0 | 0.0 | 0.00 | 0.00 | 0.00 | 96 | 1014.1 |
| 20260507081750 | 48 | 99 | 0.0 | 0.0 | 0.00 | 0.00 | 0.00 | 96 | 1014.2 |
| 20260507081246 | 48 | 99 | 0.0 | 0.0 | 0.00 | 0.00 | 0.00 | 95 | 1014.2 |
| 20260507080743 | 48 | 63 | 0.0 | 1.0 | 0.00 | 0.00 | 0.00 | 95 | 1014.1 |
| 20260507080239 | 48 | 26 | 0.0 | 0.0 | 0.00 | 0.00 | 0.00 | 95 | 1014.2 |
| 20260507075735 | 48 | 26 | 0.0 | 0.0 | 0.00 | 0.00 | 0.00 | 95 | 1014.1 |
| 20260507075231 | 48 | 26 | 0.0 | 1.0 | 0.00 | 0.00 | 0.00 | 95 | 1014.2 |
| 20260507074727 | 48 | 90 | 0.0 | 0.0 | 0.00 | 0.00 | 0.00 | 95 | 1014.1 |
| 20260507074225 | 48 | 90 | 0.0 | 0.0 | 0.00 | 0.00 | 0.00 | 95 | 1014.3 |
| 20260507073722 | 49 | 90 | 0.0 | 0.0 | 0.00 | 0.00 | 0.00 | 95 | 1014.1 |
| 20260507073219 | 49 | 81 | 0.0 | 0.0 | 0.00 | 0.00 | 0.00 | 94 | 1014.2 |
| 20260507072717 | 49 | 53 | 0.0 | 2.0 | 0.00 | 0.00 | 0.00 | 94 | 1014.2 |
| 20260507072213 | 49 | 270 | 0.0 | 0.0 | 0.00 | 0.00 | 0.00 | 94 | 1013.9 |
| 20260507071711 | 49 | 234 | 0.0 | 1.0 | 0.00 | 0.00 | 0.00 | 94 | 1014.3 |
| 20260507071207 | 49 | 83 | 0.0 | 0.0 | 0.00 | 0.00 | 0.00 | 93 | 1014.0 |
| 20260507070704 | 49 | 83 | 0.0 | 0.0 | 0.00 | 0.00 | 0.00 | 92 | 1014.1 |
| 20260507070201 | 49 | 83 | 0.0 | 0.0 | 0.00 | 0.00 | 0.00 | 92 | 1013.9 |
| 20260507065657 | 49 | 83 | 0.0 | 0.0 | 0.00 | 0.00 | 0.00 | 92 | 1014.0 |
| 20260507065154 | 49 | 81 | 0.0 | 1.0 | 0.00 | 0.00 | 0.00 | 92 | 1014.0 |
| 20260507064652 | 49 | 75 | 0.0 | 1.0 | 0.00 | 0.00 | 0.00 | 92 | 1014.1 |
| 20260507064150 | 49 | 74 | 0.0 | 1.0 | 0.00 | 0.00 | 0.00 | 92 | 1014.0 |
| 20260507063648 | 50 | 8 | 0.0 | 0.0 | 0.00 | 0.00 | 0.00 | 91 | 1014.2 |
| 20260507063145 | 50 | 279 | 0.0 | 0.0 | 0.00 | 0.00 | 0.00 | 90 | 1014.0 |
| 20260507062641 | 50 | 279 | 0.0 | 0.0 | 0.00 | 0.00 | 0.00 | 89 | 1013.9 |
| 20260507062139 | 50 | 279 | 0.0 | 0.0 | 0.00 | 0.00 | 0.00 | 88 | 1013.9 |
| 20260507061637 | 50 | 279 | 0.0 | 0.0 | 0.00 | 0.00 | 0.00 | 86 | 1013.9 |
| 20260507061134 | 51 | 279 | 0.0 | 0.0 | 0.00 | 0.00 | 0.00 | 84 | 1014.0 |
| 20260507060632 | 51 | 254 | 0.0 | 1.0 | 0.00 | 0.00 | 0.00 | 83 | 1014.0 |
| 20260507060128 | 51 | 20 | 0.0 | 2.0 | 0.00 | 0.00 | 0.00 | 82 | 1014.0 |
| 20260507055624 | 51 | 81 | 0.0 | 0.0 | 0.00 | 0.00 | 0.00 | 83 | 1014.2 |
| 20260507055120 | 51 | 82 | 0.0 | 2.0 | 0.00 | 0.00 | 0.00 | 83 | 1014.3 |
| 20260507054616 | 51 | 8 | 0.0 | 1.0 | 0.00 | 0.00 | 0.00 | 84 | 1014.4 |
| 20260507054113 | 50 | 262 | 1.0 | 2.0 | 0.00 | 0.00 | 0.00 | 86 | 1014.2 |
| 20260507053611 | 50 | 246 | 0.0 | 1.0 | 0.00 | 0.00 | 0.00 | 91 | 1014.3 |
| 20260507053110 | 50 | 255 | 1.0 | 3.0 | 0.00 | 0.00 | 0.00 | 94 | 1014.5 |
| 20260507052607 | 50 | 261 | 0.0 | 0.0 | 0.00 | 0.00 | 0.00 | 97 | 1014.4 |
| 20260507052103 | 50 | 55 | 3.0 | 3.0 | 0.00 | 0.00 | 0.00 | 98 | 1014.3 |
| 20260507051601 | 50 | 106 | 0.0 | 3.0 | 0.00 | 0.00 | 0.00 | 98 | 1014.7 |
| 20260507051058 | 51 | 83 | 0.0 | 1.0 | 0.00 | 0.00 | 0.00 | 99 | 1014.7 |
| 20260507050554 | 51 | 215 | 0.0 | 1.0 | 0.00 | 0.00 | 0.00 | 99 | 1014.6 |
| 20260507050051 | 51 | 294 | 0.0 | 2.0 | 0.00 | 0.00 | 0.00 | 99 | 1014.4 |
| 20260507045548 | 51 | 246 | 0.0 | 2.0 | 0.00 | 0.00 | 0.00 | 99 | 1014.6 |
| 20260507045045 | 51 | 240 | 1.0 | 1.0 | 0.00 | 0.00 | 0.00 | 99 | 1014.5 |
| 20260507044541 | 51 | 246 | 0.0 | 0.0 | 0.00 | 0.00 | 0.00 | 99 | 1014.4 |
| 20260507044039 | 51 | 246 | 0.0 | 0.0 | 0.00 | 0.00 | 0.00 | 99 | 1014.4 |
| 20260507043534 | 51 | 246 | 0.0 | 0.0 | 0.00 | 0.00 | 0.00 | 99 | 1014.3 |
| 20260507043032 | 51 | 246 | 0.0 | 0.0 | 0.00 | 0.00 | 0.00 | 99 | 1014.4 |
| 20260507042527 | 52 | 240 | 0.0 | 1.0 | 0.00 | 0.00 | 0.00 | 99 | 1014.5 |
| 20260507042024 | 52 | 270 | 0.0 | 0.0 | 0.00 | 0.00 | 0.00 | 99 | 1014.3 |
| 20260507041521 | 52 | 270 | 0.0 | 1.0 | 0.00 | 0.00 | 0.00 | 99 | 1014.6 |
| 20260507041017 | 52 | 254 | 0.0 | 0.0 | 0.00 | 0.00 | 0.00 | 99 | 1014.5 |
| 20260507040514 | 52 | 261 | 0.0 | 0.0 | 0.00 | 0.00 | 0.00 | 99 | 1014.3 |
| 20260507040009 | 52 | 261 | 0.0 | 0.0 | 0.00 | 0.52 | 0.52 | 99 | 1014.1 |
| 20260507035506 | 52 | 261 | 0.0 | 2.0 | 0.00 | 0.52 | 0.52 | 99 | 1014.2 |
| 20260507035002 | 52 | 49 | 0.0 | 2.0 | 0.00 | 0.52 | 0.52 | 98 | 1014.1 |
| 20260507034459 | 52 | 261 | 0.0 | 0.0 | 0.00 | 0.52 | 0.52 | 98 | 1014.0 |
| 20260507033957 | 52 | 261 | 0.0 | 0.0 | 0.00 | 0.52 | 0.52 | 98 | 1014.1 |
| 20260507033455 | 52 | 270 | 0.0 | 1.0 | 0.00 | 0.52 | 0.52 | 98 | 1014.4 |
| 20260507032952 | 52 | 84 | 0.0 | 0.0 | 0.00 | 0.52 | 0.52 | 98 | 1014.3 |
| 20260507032449 | 52 | 84 | 0.0 | 1.0 | 0.00 | 0.52 | 0.52 | 98 | 1014.1 |
| 20260507031945 | 52 | 99 | 0.0 | 0.0 | 0.00 | 0.52 | 0.52 | 98 | 1014.3 |
| 20260507031441 | 52 | 90 | 0.0 | 1.0 | 0.00 | 0.52 | 0.52 | 98 | 1014.4 |
| 20260507030938 | 52 | 66 | 0.0 | 1.0 | 0.00 | 0.52 | 0.52 | 98 | 1014.6 |
| 20260507030436 | 52 | 251 | 0.0 | 0.0 | 0.00 | 0.52 | 0.52 | 98 | 1014.5 |
| 20260507025932 | 52 | 251 | 0.0 | 0.0 | 0.00 | 0.52 | 0.52 | 98 | 1014.5 |
| 20260507025430 | 52 | 251 | 0.0 | 1.0 | 0.00 | 0.52 | 0.52 | 98 | 1014.5 |
| 20260507024928 | 52 | 262 | 1.0 | 1.0 | 0.00 | 0.52 | 0.52 | 98 | 1014.3 |
| 20260507024425 | 52 | 66 | 0.0 | 1.0 | 0.00 | 0.52 | 0.52 | 98 | 1013.9 |
| 20260507023920 | 52 | 270 | 0.0 | 1.0 | 0.00 | 0.52 | 0.52 | 98 | 1013.9 |
| 20260507023417 | 52 | 261 | 0.0 | 0.0 | 0.00 | 0.52 | 0.52 | 98 | 1014.2 |
| 20260507022915 | 52 | 74 | 0.0 | 0.0 | 0.00 | 0.52 | 0.52 | 98 | 1013.9 |
| 20260507022411 | 52 | 74 | 0.0 | 1.0 | 0.00 | 0.52 | 0.52 | 98 | 1013.9 |
| 20260507021907 | 52 | 237 | 0.0 | 0.0 | 0.00 | 0.52 | 0.52 | 98 | 1014.0 |
| 20260507021402 | 52 | 237 | 0.0 | 1.0 | 0.00 | 0.52 | 0.52 | 98 | 1013.9 |
| 20260507020900 | 52 | 246 | 0.0 | 0.0 | 0.00 | 0.52 | 0.52 | 97 | 1013.8 |
| 20260507020356 | 52 | 246 | 0.0 | 0.0 | 0.00 | 0.52 | 0.52 | 97 | 1013.7 |
| 20260507015854 | 52 | 246 | 0.0 | 0.0 | 0.00 | 0.52 | 0.52 | 97 | 1013.4 |
| 20260507015352 | 52 | 246 | 0.0 | 0.0 | 0.00 | 0.52 | 0.52 | 97 | 1013.5 |
| 20260507014849 | 52 | 270 | 0.0 | 0.0 | 0.00 | 0.52 | 0.52 | 97 | 1013.8 |
| 20260507014345 | 52 | 279 | 0.0 | 0.0 | 0.00 | 0.52 | 0.52 | 97 | 1013.7 |
| 20260507013841 | 52 | 279 | 0.0 | 0.0 | 0.00 | 0.52 | 0.52 | 97 | 1013.4 |
| 20260507013339 | 52 | 74 | 0.0 | 0.0 | 0.00 | 0.52 | 0.52 | 97 | 1013.4 |
| 20260507012836 | 52 | 74 | 0.0 | 1.0 | 0.00 | 0.52 | 0.52 | 97 | 1013.5 |
| 20260507012332 | 53 | 35 | 0.0 | 2.0 | 0.00 | 0.52 | 0.52 | 96 | 1013.4 |
| 20260507011829 | 53 | 254 | 0.0 | 0.0 | 0.00 | 0.52 | 0.52 | 96 | 1013.7 |
| 20260507011326 | 53 | 254 | 0.0 | 0.0 | 0.00 | 0.52 | 0.52 | 96 | 1013.9 |
| 20260507010825 | 52 | 279 | 0.0 | 1.0 | 0.00 | 0.52 | 0.52 | 96 | 1013.7 |
| 20260507010321 | 52 | 270 | 0.0 | 1.0 | 0.00 | 0.52 | 0.52 | 96 | 1013.2 |
| 20260507005819 | 53 | 262 | 0.0 | 1.0 | 0.00 | 0.52 | 0.52 | 96 | 1013.2 |
| 20260507005315 | 52 | 220 | 0.0 | 2.0 | 0.00 | 0.52 | 0.52 | 96 | 1013.5 |
| 20260507004807 | 53 | 66 | 0.0 | 0.0 | 0.00 | 0.52 | 0.52 | 96 | 1012.9 |
| 20260507004304 | 53 | 66 | 0.0 | 0.0 | 0.00 | 0.52 | 0.52 | 96 | 1012.8 |
| 20260507003801 | 53 | 90 | 0.0 | 1.0 | 0.00 | 0.52 | 0.52 | 96 | 1013.0 |
| 20260507003255 | 53 | 74 | 0.0 | 0.0 | 0.00 | 0.52 | 0.52 | 96 | 1013.2 |
| 20260507002751 | 53 | 74 | 0.0 | 1.0 | 0.00 | 0.52 | 0.52 | 96 | 1013.1 |